Time;durP1;ratioP1;P1;durP2;ratioP2;P2;SDS_P1;SDS_P2;PMS_P1;PMS_P2;Temp;Humidity;BMP_temperature;BMP_pressure;BME280_temperature;BME280_humidity;BME280_pressure;Samples;Min_cycle;Max_cycle;Signal;HPM_P1;HPM_P2
2022/06/01 04:01:37;;;;;;;6.60;6.30;;;11.40;99.90;;;;;;5383718;23;20416;-69
2022/06/01 04:04:04;;;;;;;7.03;6.53;;;11.50;99.90;;;;;;4963356;28;20548;-69
2022/06/01 04:06:31;;;;;;;7.22;6.82;;;11.50;99.90;;;;;;4954376;28;20231;-70
2022/06/01 04:08:58;;;;;;;6.50;6.13;;;11.60;99.90;;;;;;4960596;28;20275;-70
2022/06/01 04:11:25;;;;;;;6.72;6.43;;;11.70;99.90;;;;;;4952332;28;20290;-70
2022/06/01 04:13:51;;;;;;;5.75;5.50;;;11.80;99.90;;;;;;4940782;29;20209;-70
2022/06/01 04:16:19;;;;;;;5.85;5.55;;;11.90;99.90;;;;;;4945695;28;20214;-70
2022/06/01 04:18:47;;;;;;;6.75;6.15;;;11.90;99.90;;;;;;4985021;23;20229;-69
2022/06/01 04:21:16;;;;;;;6.07;5.78;;;12.00;99.90;;;;;;4965050;28;20208;-71
2022/06/01 04:23:43;;;;;;;5.67;5.43;;;12.10;99.90;;;;;;4962722;28;20209;-70
2022/06/01 04:26:09;;;;;;;5.97;5.78;;;12.10;99.90;;;;;;4960516;28;20470;-70
2022/06/01 04:28:36;;;;;;;5.67;5.47;;;12.10;99.90;;;;;;4956691;28;20693;-69
2022/06/01 04:31:03;;;;;;;6.00;5.65;;;12.10;99.90;;;;;;4962129;28;20475;-70
2022/06/01 04:33:30;;;;;;;5.53;5.32;;;12.00;99.90;;;;;;4950315;28;20236;-70
2022/06/01 04:35:58;;;;;;;5.88;5.47;;;11.90;99.90;;;;;;4962161;28;20290;-70
2022/06/01 04:38:26;;;;;;;5.53;5.30;;;12.00;99.90;;;;;;4959498;28;20322;-70
2022/06/01 04:40:53;;;;;;;5.20;5.00;;;12.00;99.90;;;;;;4962196;28;20202;-70
2022/06/01 04:43:23;;;;;;;6.65;6.35;;;12.00;99.90;;;;;;4959971;28;20223;-70
2022/06/01 04:45:51;;;;;;;6.70;6.20;;;12.00;99.90;;;;;;4955479;28;20684;-70
2022/06/01 04:48:18;;;;;;;6.35;6.05;;;12.00;99.90;;;;;;4958304;28;20708;-70
2022/06/01 04:50:45;;;;;;;6.93;6.53;;;11.90;99.90;;;;;;4944095;29;20220;-70
2022/06/01 04:53:15;;;;;;;7.40;7.00;;;11.90;99.90;;;;;;4971894;28;20217;-70
2022/06/01 04:55:44;;;;;;;7.28;6.80;;;11.90;99.90;;;;;;4968264;28;20189;-71
2022/06/01 04:58:11;;;;;;;6.90;6.60;;;12.00;99.90;;;;;;4983472;28;20232;-71
2022/06/01 05:00:39;;;;;;;6.47;6.18;;;12.00;99.90;;;;;;4978959;28;20225;-71
2022/06/01 05:03:07;;;;;;;7.32;6.82;;;12.00;99.90;;;;;;4991798;28;20202;-71
2022/06/01 05:05:35;;;;;;;7.53;6.95;;;12.00;99.90;;;;;;4982211;28;20272;-71
2022/06/01 05:08:01;;;;;;;6.32;6.03;;;12.10;99.90;;;;;;4982736;28;20319;-72
2022/06/01 05:10:29;;;;;;;6.10;5.78;;;12.00;99.90;;;;;;4949093;28;20205;-70
2022/06/01 05:12:56;;;;;;;8.02;7.63;;;12.10;99.90;;;;;;4953998;28;20209;-70
2022/06/01 05:15:23;;;;;;;6.90;6.40;;;12.20;99.90;;;;;;4948178;28;20216;-70
2022/06/01 05:17:49;;;;;;;6.03;5.82;;;12.20;99.90;;;;;;4946347;29;20240;-70
2022/06/01 05:20:16;;;;;;;6.75;6.40;;;12.30;99.90;;;;;;4960154;28;20229;-70
2022/06/01 05:22:43;;;;;;;7.30;6.78;;;12.50;99.90;;;;;;4963788;28;20207;-70
2022/06/01 05:25:10;;;;;;;6.30;5.83;;;12.60;99.90;;;;;;4957881;28;20220;-70
2022/06/01 05:27:40;;;;;;;6.78;6.47;;;12.70;99.90;;;;;;4948357;28;20489;-70
2022/06/01 05:30:09;;;;;;;6.50;6.13;;;12.70;99.90;;;;;;4963112;28;20208;-70
2022/06/01 05:32:36;;;;;;;6.07;5.70;;;12.60;99.90;;;;;;4949252;28;20469;-70
2022/06/01 05:35:04;;;;;;;6.90;6.60;;;12.50;99.90;;;;;;4963371;28;20472;-70
2022/06/01 05:37:30;;;;;;;7.40;6.80;;;12.30;99.90;;;;;;4949727;28;20496;-71
2022/06/01 05:39:57;;;;;;;7.10;6.60;;;12.20;99.90;;;;;;4961247;28;20484;-71
2022/06/01 05:42:24;;;;;;;7.30;6.88;;;12.10;99.90;;;;;;4951105;28;20216;-70
2022/06/01 05:44:53;;;;;;;12.32;10.48;;;12.00;99.90;;;;;;4957158;28;20589;-70
2022/06/01 05:47:20;;;;;;;9.30;8.50;;;12.00;99.90;;;;;;4948162;28;20497;-70
2022/06/01 05:49:48;;;;;;;10.02;9.23;;;11.80;99.90;;;;;;4941207;28;20201;-70
2022/06/01 05:52:18;;;;;;;9.95;9.18;;;11.50;99.90;;;;;;4941090;28;20213;-69
2022/06/01 05:54:45;;;;;;;11.40;9.43;;;11.30;99.90;;;;;;4948735;28;20228;-69
2022/06/01 05:57:11;;;;;;;11.25;10.25;;;11.20;99.90;;;;;;4954713;28;20233;-70
2022/06/01 05:59:38;;;;;;;11.57;10.57;;;11.20;99.90;;;;;;4941067;29;20226;-70
2022/06/01 06:02:07;;;;;;;10.90;10.10;;;11.10;99.90;;;;;;4941928;28;20218;-71
2022/06/01 06:04:34;;;;;;;11.65;9.77;;;11.10;99.90;;;;;;4943702;28;20206;-70
2022/06/01 06:07:01;;;;;;;14.93;10.00;;;11.00;99.90;;;;;;4941362;28;20248;-70
2022/06/01 06:09:28;;;;;;;11.55;10.65;;;11.00;99.90;;;;;;4946104;28;20221;-70
2022/06/01 06:11:55;;;;;;;10.07;9.18;;;11.00;99.90;;;;;;4949444;28;20211;-71
2022/06/01 06:14:22;;;;;;;11.20;10.30;;;11.10;99.90;;;;;;4948524;28;20536;-71
2022/06/01 06:16:49;;;;;;;11.30;10.40;;;11.10;99.90;;;;;;4962686;28;20215;-70
2022/06/01 06:19:19;;;;;;;11.45;10.45;;;11.00;99.90;;;;;;4949566;28;20229;-71
2022/06/01 06:21:46;;;;;;;12.73;11.65;;;11.00;99.90;;;;;;4949683;28;20218;-70
2022/06/01 06:24:16;;;;;;;11.95;10.75;;;11.10;99.90;;;;;;4945209;28;20588;-71
2022/06/01 06:26:43;;;;;;;10.35;9.55;;;11.10;99.90;;;;;;4948953;28;20206;-71
2022/06/01 06:29:12;;;;;;;10.57;9.77;;;11.20;99.90;;;;;;4944934;28;20238;-71
2022/06/01 06:31:40;;;;;;;12.07;11.18;;;11.10;99.90;;;;;;4940124;28;20851;-70
2022/06/01 06:34:06;;;;;;;11.55;10.75;;;11.10;99.90;;;;;;4950117;28;20213;-70
2022/06/01 06:36:35;;;;;;;11.63;10.82;;;11.20;99.90;;;;;;4961108;28;20580;-70
2022/06/01 06:39:02;;;;;;;10.38;9.75;;;11.20;99.90;;;;;;4946668;29;20225;-70
2022/06/01 06:41:29;;;;;;;11.65;10.60;;;11.30;99.90;;;;;;4943502;28;20220;-71
2022/06/01 06:43:56;;;;;;;11.30;10.45;;;11.30;99.90;;;;;;4945229;28;20229;-70
2022/06/01 06:46:24;;;;;;;11.05;10.25;;;11.50;99.90;;;;;;4947363;28;20209;-70
2022/06/01 06:48:51;;;;;;;10.57;9.77;;;11.60;99.90;;;;;;4937848;28;20229;-70
2022/06/01 06:51:19;;;;;;;10.27;9.48;;;11.60;99.90;;;;;;4955930;28;20612;-70
2022/06/01 06:53:48;;;;;;;10.27;9.48;;;11.60;99.90;;;;;;4955242;28;20217;-71
2022/06/01 06:56:18;;;;;;;10.55;9.85;;;11.70;99.90;;;;;;4948277;28;20213;-70
2022/06/01 06:58:45;;;;;;;10.40;9.60;;;12.00;99.90;;;;;;4955995;28;20232;-70
2022/06/01 07:01:12;;;;;;;12.00;11.10;;;12.30;99.90;;;;;;4942429;28;20228;-71
2022/06/01 07:03:38;;;;;;;7.87;7.43;;;13.30;99.90;;;;;;4951855;28;20465;-70
2022/06/01 07:06:12;;;;;;;7.23;6.73;;;13.90;99.90;;;;;;4950412;28;20469;-70
2022/06/01 07:08:41;;;;;;;6.97;6.63;;;13.90;99.90;;;;;;4956932;28;20996;-70
2022/06/01 07:11:10;;;;;;;6.10;5.80;;;14.30;99.90;;;;;;4944980;28;20773;-71
2022/06/01 07:13:37;;;;;;;5.37;5.13;;;14.90;99.90;;;;;;4939058;29;20473;-70
2022/06/01 07:16:07;;;;;;;4.70;4.60;;;14.60;99.90;;;;;;4942712;28;20496;-71
2022/06/01 07:18:35;;;;;;;5.73;5.43;;;14.70;99.90;;;;;;4944474;28;21037;-70
2022/06/01 07:21:02;;;;;;;4.80;4.60;;;15.20;99.90;;;;;;4963926;28;20481;-70
2022/06/01 07:23:28;;;;;;;5.37;5.07;;;15.90;99.90;;;;;;4941113;28;20473;-70
2022/06/01 07:25:55;;;;;;;4.37;4.27;;;16.50;99.90;;;;;;4949913;28;20456;-71
2022/06/01 07:28:23;;;;;;;4.27;4.07;;;17.30;99.90;;;;;;4939047;28;20492;-72
2022/06/01 07:30:56;;;;;;;4.60;4.40;;;17.90;99.90;;;;;;4945098;29;20488;-71
2022/06/01 07:33:24;;;;;;;4.17;4.10;;;17.70;99.90;;;;;;4956512;28;20479;-71
2022/06/01 07:35:51;;;;;;;4.63;4.30;;;17.30;99.90;;;;;;4952419;28;20968;-71
2022/06/01 07:43:48;;;;;;;5.10;4.90;;;16.50;99.90;;;;;;4955487;28;20562;-71
2022/06/01 07:46:15;;;;;;;5.90;5.60;;;16.10;99.90;;;;;;4946929;28;20476;-71
2022/06/01 07:48:41;;;;;;;5.50;5.30;;;15.90;99.90;;;;;;4939521;28;20504;-73
2022/06/01 07:51:08;;;;;;;4.73;4.53;;;15.80;99.90;;;;;;4937430;28;20825;-70
2022/06/01 07:53:35;;;;;;;6.03;5.57;;;15.70;99.90;;;;;;4945797;28;20487;-72
2022/06/01 07:56:01;;;;;;;6.20;5.80;;;15.70;99.90;;;;;;4960645;28;20976;-71
2022/06/01 07:58:28;;;;;;;6.83;6.47;;;15.70;99.90;;;;;;4960434;28;20484;-71
2022/06/01 08:00:56;;;;;;;5.30;5.10;;;15.70;99.90;;;;;;4948820;28;20483;-71
2022/06/01 08:03:23;;;;;;;6.43;6.00;;;16.00;99.90;;;;;;4967086;28;20455;-70
2022/06/01 08:05:50;;;;;;;5.23;5.03;;;16.00;99.90;;;;;;4952618;28;20840;-69
2022/06/01 08:08:17;;;;;;;5.63;5.23;;;16.20;99.90;;;;;;4966581;28;20483;-70
2022/06/01 08:10:43;;;;;;;5.07;4.87;;;16.50;99.90;;;;;;4963841;28;20472;-71
2022/06/01 08:13:11;;;;;;;4.57;4.47;;;16.90;99.90;;;;;;4963172;28;20487;-71
2022/06/01 08:15:41;;;;;;;5.43;5.23;;;16.80;99.90;;;;;;4947664;28;21006;-73
2022/06/01 08:18:10;;;;;;;5.63;5.43;;;16.50;99.90;;;;;;4963219;28;21013;-72
2022/06/01 08:20:37;;;;;;;7.63;7.17;;;16.20;99.90;;;;;;4953814;28;20492;-72
2022/06/01 08:23:05;;;;;;;5.97;5.67;;;15.90;99.90;;;;;;4963021;28;20464;-72
2022/06/01 08:25:33;;;;;;;6.30;6.00;;;15.50;99.90;;;;;;4955159;28;20473;-72
2022/06/01 08:28:00;;;;;;;6.63;6.17;;;15.40;99.90;;;;;;4960337;28;20492;-72
2022/06/01 08:30:29;;;;;;;5.97;5.63;;;15.40;99.90;;;;;;4959899;28;20473;-73
2022/06/01 08:32:56;;;;;;;6.13;5.67;;;15.80;99.90;;;;;;4963167;28;20464;-72
2022/06/01 08:35:27;;;;;;;5.90;5.60;;;16.20;99.90;;;;;;4945743;28;20464;-72
2022/06/01 08:37:54;;;;;;;5.43;5.13;;;16.50;99.90;;;;;;4960939;28;20535;-72
2022/06/01 08:40:25;;;;;;;5.47;5.00;;;16.60;99.90;;;;;;4960099;28;20503;-72
2022/06/01 08:42:57;;;;;;;5.33;5.10;;;16.70;99.90;;;;;;4953698;28;20889;-71
2022/06/01 08:45:26;;;;;;;5.53;5.23;;;17.00;99.90;;;;;;4936923;29;20477;-71
2022/06/01 08:47:52;;;;;;;5.50;5.00;;;17.20;99.90;;;;;;4976706;28;20484;-71
2022/06/01 08:50:27;;;;;;;4.97;4.57;;;16.80;99.90;;;;;;4986432;28;20482;-71
2022/06/01 08:52:56;;;;;;;4.93;4.73;;;16.80;99.90;;;;;;4985217;28;20445;-71
2022/06/01 08:55:23;;;;;;;4.83;4.73;;;17.30;99.90;;;;;;4968520;28;20468;-71
2022/06/01 08:57:57;;;;;;;5.23;5.03;;;17.60;99.90;;;;;;4967519;28;20486;-71
2022/06/01 09:00:27;;;;;;;4.57;4.47;;;17.90;99.90;;;;;;4961525;28;20544;-71
2022/06/01 09:03:03;;;;;;;5.00;4.80;;;18.20;99.90;;;;;;4965360;28;20476;-71
2022/06/01 09:05:41;;;;;;;4.53;4.33;;;18.20;99.90;;;;;;4952998;28;20539;-71
2022/06/01 09:08:14;;;;;;;3.80;3.70;;;18.20;99.90;;;;;;4957601;28;20500;-71
2022/06/01 09:10:53;;;;;;;4.93;4.63;;;18.10;99.90;;;;;;4957485;28;20836;-71
2022/06/01 09:13:24;;;;;;;5.57;5.17;;;18.10;99.90;;;;;;4970610;28;20960;-71
2022/06/01 09:15:55;;;;;;;4.40;4.30;;;17.50;99.90;;;;;;4958367;28;20542;-71
2022/06/01 09:18:25;;;;;;;5.23;5.03;;;17.30;99.90;;;;;;4957850;28;20604;-70
2022/06/01 09:23:44;;;;;;;4.60;4.50;;;17.10;99.90;;;;;;4911948;28;20469;-71
2022/06/01 09:26:24;;;;;;;4.93;4.53;;;17.10;99.90;;;;;;4962132;28;20463;-71
2022/06/01 09:28:55;;;;;;;4.50;4.40;;;17.20;99.90;;;;;;4944046;28;20555;-71
2022/06/01 09:31:29;;;;;;;4.30;4.10;;;17.30;99.90;;;;;;4958549;28;20781;-71
2022/06/01 09:34:14;;;;;;;4.33;4.20;;;17.10;99.90;;;;;;4954372;28;20468;-71
2022/06/01 09:36:55;;;;;;;4.97;4.87;;;17.30;99.90;;;;;;4964731;28;20987;-72
2022/06/01 09:39:22;;;;;;;4.70;4.27;;;17.30;99.90;;;;;;4951186;28;20480;-71
2022/06/01 09:41:49;;;;;;;4.53;4.33;;;17.30;99.90;;;;;;4944148;28;20492;-70
2022/06/01 09:44:18;;;;;;;4.30;4.10;;;17.40;99.90;;;;;;4951075;28;20464;-70
2022/06/01 09:46:54;;;;;;;4.03;3.93;;;17.50;99.90;;;;;;4946331;28;20504;-71
2022/06/01 09:49:25;;;;;;;3.50;3.30;;;17.50;99.90;;;;;;4946465;28;20491;-70
2022/06/01 09:51:56;;;;;;;3.80;3.70;;;17.60;99.90;;;;;;4967196;28;20798;-70
2022/06/01 09:54:28;;;;;;;3.10;3.00;;;17.70;99.90;;;;;;4961279;28;20840;-70
2022/06/01 09:56:55;;;;;;;2.23;2.23;;;17.70;99.90;;;;;;4951358;28;20846;-70
2022/06/01 10:08:05;;;;;;;2.20;2.20;;;17.80;99.90;;;;;;4951626;28;20623;-72
2022/06/01 10:10:32;;;;;;;1.80;1.80;;;18.10;99.90;;;;;;4945712;28;20473;-73
2022/06/01 10:13:00;;;;;;;1.10;1.10;;;18.10;99.90;;;;;;4952041;28;20473;-72
2022/06/01 10:15:33;;;;;;;1.20;1.20;;;18.20;99.90;;;;;;4952053;28;20477;-72
2022/06/01 10:18:05;;;;;;;1.00;1.00;;;18.20;99.90;;;;;;4940321;28;20504;-72
2022/06/01 10:20:37;;;;;;;1.20;1.20;;;18.10;99.90;;;;;;4945674;28;20492;-72
2022/06/01 10:23:10;;;;;;;1.23;1.23;;;18.10;99.90;;;;;;4952613;23;20540;-74
2022/06/01 10:25:43;;;;;;;1.57;1.57;;;18.20;99.90;;;;;;4918385;29;20478;-73
2022/06/01 10:28:15;;;;;;;1.40;1.40;;;18.10;99.90;;;;;;4921136;29;20509;-73
2022/06/01 10:30:46;;;;;;;1.63;1.63;;;18.20;99.90;;;;;;4918980;29;20470;-74
2022/06/01 10:33:19;;;;;;;2.00;1.33;;;18.10;99.90;;;;;;4915390;29;20517;-74
2022/06/01 10:35:48;;;;;;;1.60;1.60;;;18.10;99.90;;;;;;4904514;29;20493;-74
2022/06/01 10:38:21;;;;;;;3.40;3.30;;;18.00;99.90;;;;;;4907990;29;20481;-74
2022/06/01 10:40:57;;;;;;;3.20;3.10;;;17.80;99.90;;;;;;4904409;29;20494;-75
2022/06/01 10:43:39;;;;;;;2.00;1.90;;;17.80;99.90;;;;;;4907920;29;20494;-72
2022/06/01 10:46:31;;;;;;;5.03;2.00;;;17.90;99.90;;;;;;4920493;29;20475;-72
2022/06/01 10:49:13;;;;;;;1.60;1.60;;;17.90;99.90;;;;;;4912289;29;20518;-71
2022/06/01 10:51:40;;;;;;;1.93;1.93;;;18.10;99.90;;;;;;4911408;29;20966;-73
2022/06/01 10:54:17;;;;;;;2.37;2.30;;;18.30;99.90;;;;;;4917581;29;20466;-73
2022/06/01 10:56:44;;;;;;;2.73;2.73;;;18.40;99.90;;;;;;4902526;29;20480;-73
2022/06/01 10:59:13;;;;;;;2.67;2.60;;;18.60;99.90;;;;;;4916901;29;20493;-74
2022/06/01 11:01:45;;;;;;;2.20;2.20;;;18.80;99.90;;;;;;4924061;29;20494;-73
2022/06/01 11:04:45;;;;;;;2.20;2.20;;;18.80;99.90;;;;;;4912815;29;20475;-74
2022/06/01 11:07:39;;;;;;;2.97;2.97;;;19.00;99.90;;;;;;4910664;29;20467;-73
2022/06/01 11:10:15;;;;;;;2.70;2.60;;;18.60;99.90;;;;;;4904807;29;22073;-73
2022/06/01 11:12:52;;;;;;;2.50;2.50;;;18.40;99.90;;;;;;4918492;29;20485;-73
2022/06/01 11:15:25;;;;;;;2.37;2.27;;;18.20;99.90;;;;;;4920642;29;20508;-72
2022/06/01 11:18:01;;;;;;;2.60;2.50;;;18.00;99.90;;;;;;4895681;29;20474;-70
2022/06/01 11:21:00;;;;;;;3.17;3.13;;;17.70;99.90;;;;;;4899736;29;20468;-70
2022/06/01 11:23:40;;;;;;;3.10;3.00;;;17.70;99.90;;;;;;4918287;29;20513;-71
2022/06/01 11:26:18;;;;;;;3.60;3.60;;;17.80;99.90;;;;;;4924551;29;20931;-70
2022/06/01 11:29:07;;;;;;;2.53;2.53;;;18.00;99.90;;;;;;4914087;29;20469;-71
2022/06/01 11:31:36;;;;;;;3.10;3.00;;;18.30;99.90;;;;;;4908333;29;20545;-71
2022/06/01 11:34:06;;;;;;;2.80;2.80;;;18.40;99.90;;;;;;4921886;29;20464;-70
2022/06/01 11:36:40;;;;;;;3.00;2.90;;;18.50;99.90;;;;;;4926286;29;20475;-70
2022/06/01 11:39:18;;;;;;;2.83;2.83;;;18.70;99.90;;;;;;4912534;29;20475;-70
2022/06/01 11:41:59;;;;;;;3.10;3.00;;;18.60;99.90;;;;;;4898436;29;21036;-70
2022/06/01 11:44:29;;;;;;;3.07;3.00;;;18.60;99.90;;;;;;4917053;29;20960;-70
2022/06/01 11:47:01;;;;;;;3.90;3.70;;;18.70;99.90;;;;;;4917169;29;20844;-69
2022/06/01 11:49:35;;;;;;;3.40;3.30;;;18.80;99.90;;;;;;4919712;29;20482;-69
2022/06/01 11:52:26;;;;;;;3.43;3.43;;;18.70;99.90;;;;;;4913522;29;20834;-69
2022/06/01 11:55:10;;;;;;;3.57;3.27;;;18.60;99.90;;;;;;4914424;29;20509;-69
2022/06/01 11:57:47;;;;;;;3.77;3.67;;;18.60;99.90;;;;;;4912939;29;20521;-69
2022/06/01 12:00:19;;;;;;;3.50;3.40;;;18.70;99.90;;;;;;4913436;29;20545;-69
2022/06/01 12:02:50;;;;;;;4.67;4.40;;;18.80;99.90;;;;;;4914091;29;20645;-68
2022/06/01 12:05:23;;;;;;;3.87;3.70;;;18.80;99.90;;;;;;4916154;29;20530;-69
2022/06/01 12:07:53;;;;;;;4.23;4.13;;;19.00;99.90;;;;;;4916647;29;20960;-66
2022/06/01 12:10:26;;;;;;;4.47;4.37;;;18.80;99.90;;;;;;4916537;29;20529;-65
2022/06/01 12:13:22;;;;;;;4.83;4.60;;;18.50;99.90;;;;;;4917247;29;20482;-69
2022/06/01 12:16:18;;;;;;;4.23;4.03;;;18.20;99.90;;;;;;4917102;29;20462;-69
2022/06/01 12:18:59;;;;;;;4.70;4.40;;;18.10;99.90;;;;;;4917095;29;20473;-69
2022/06/01 12:21:36;;;;;;;5.10;4.70;;;18.10;99.90;;;;;;4915439;29;20493;-69
2022/06/01 12:30:06;;;;;;;4.90;4.70;;;18.20;99.90;;;;;;4916641;29;20501;-68
2022/06/01 12:33:10;;;;;;;5.50;4.97;;;18.10;99.90;;;;;;4927699;29;20478;-68
2022/06/01 12:35:55;;;;;;;4.90;4.60;;;18.20;99.90;;;;;;4922659;29;20469;-68
2022/06/01 12:38:31;;;;;;;5.67;5.37;;;18.30;99.90;;;;;;4913822;29;20526;-68
2022/06/01 12:41:11;;;;;;;5.30;5.00;;;18.40;99.90;;;;;;4917303;29;20874;-68
2022/06/01 12:43:39;;;;;;;6.40;5.93;;;18.50;99.90;;;;;;4908839;29;21187;-68
2022/06/01 12:46:21;;;;;;;5.40;5.20;;;18.60;99.90;;;;;;4909544;29;20481;-68
2022/06/01 12:48:47;;;;;;;5.70;5.33;;;18.70;99.90;;;;;;4911477;29;20466;-68
2022/06/01 12:51:14;;;;;;;6.67;6.20;;;18.80;99.90;;;;;;4911782;29;20467;-69
2022/06/01 12:53:43;;;;;;;5.63;5.30;;;18.80;99.90;;;;;;4906698;29;20554;-68
2022/06/01 12:56:15;;;;;;;6.03;5.73;;;18.90;99.90;;;;;;4902895;29;20467;-68
2022/06/01 12:58:45;;;;;;;6.97;6.43;;;19.00;99.90;;;;;;4909656;29;20814;-68
2022/06/01 13:01:16;;;;;;;6.10;5.70;;;19.00;99.90;;;;;;4909966;29;20495;-68
2022/06/01 13:03:44;;;;;;;6.03;5.73;;;18.90;99.90;;;;;;4909634;29;20514;-68
2022/06/01 13:06:17;;;;;;;5.37;5.07;;;18.90;99.90;;;;;;4912352;29;20475;-68
2022/06/01 13:08:46;;;;;;;5.27;5.07;;;18.70;99.90;;;;;;4911680;29;20453;-68
2022/06/01 13:11:18;;;;;;;4.63;4.53;;;18.50;99.90;;;;;;4914502;29;20536;-68
2022/06/01 13:13:45;;;;;;;5.47;5.10;;;18.50;99.90;;;;;;4908592;29;20481;-68
2022/06/01 13:16:13;;;;;;;5.83;5.57;;;18.40;99.90;;;;;;4915416;29;20492;-69
2022/06/01 13:18:42;;;;;;;5.70;5.30;;;18.40;99.90;;;;;;4906878;29;20828;-69
2022/06/01 13:21:14;;;;;;;6.00;5.77;;;18.50;99.90;;;;;;4917523;29;20473;-68
2022/06/01 13:23:49;;;;;;;7.20;6.70;;;18.50;99.90;;;;;;4905584;29;20501;-68
2022/06/01 13:26:27;;;;;;;5.80;5.50;;;18.40;99.90;;;;;;4905016;29;20470;-68
2022/06/01 13:28:54;;;;;;;6.97;6.57;;;18.30;99.90;;;;;;4905046;29;20463;-68
2022/06/01 13:31:23;;;;;;;6.90;6.50;;;18.10;99.90;;;;;;4910827;29;20486;-68
2022/06/01 13:33:50;;;;;;;6.50;6.20;;;18.10;99.90;;;;;;4914672;29;20478;-68
2022/06/01 13:36:28;;;;;;;6.07;5.60;;;18.00;99.90;;;;;;4908992;29;20470;-68
2022/06/01 13:39:03;;;;;;;5.83;5.50;;;18.00;99.90;;;;;;4923603;29;20461;-68
2022/06/01 13:41:36;;;;;;;5.33;5.00;;;18.00;99.90;;;;;;4916119;29;20496;-68
2022/06/01 13:44:09;;;;;;;5.53;5.27;;;18.10;99.90;;;;;;4905579;29;20485;-68
2022/06/01 13:46:41;;;;;;;5.10;4.80;;;18.20;99.90;;;;;;4925668;29;20497;-68
2022/06/01 13:49:12;;;;;;;4.37;4.27;;;18.10;99.90;;;;;;4907762;29;20478;-68
2022/06/01 13:51:42;;;;;;;4.70;4.40;;;18.10;99.90;;;;;;4925267;29;20624;-68
2022/06/01 13:54:28;;;;;;;4.70;4.60;;;18.10;99.90;;;;;;4909638;29;20478;-68
2022/06/01 13:57:03;;;;;;;5.03;4.87;;;18.00;99.90;;;;;;4917451;29;20496;-68
2022/06/01 13:59:34;;;;;;;5.13;4.93;;;18.00;99.90;;;;;;4907911;29;20478;-68
2022/06/01 14:02:10;;;;;;;5.50;5.30;;;18.10;99.90;;;;;;4917173;29;20489;-68
2022/06/01 14:04:42;;;;;;;5.57;5.40;;;18.30;99.90;;;;;;4912416;29;20500;-67
2022/06/01 14:07:12;;;;;;;5.30;4.80;;;18.50;99.90;;;;;;4903167;29;20487;-69
2022/06/01 14:09:45;;;;;;;5.40;5.20;;;18.70;99.90;;;;;;4926571;29;20556;-68
2022/06/01 14:12:14;;;;;;;6.07;5.77;;;18.80;99.90;;;;;;4912349;29;20482;-68
2022/06/01 14:14:42;;;;;;;5.57;5.33;;;18.90;99.90;;;;;;4930935;29;20468;-68
2022/06/01 14:17:12;;;;;;;5.80;5.60;;;19.10;99.90;;;;;;4913767;29;20545;-68
2022/06/01 14:19:40;;;;;;;6.07;5.77;;;19.40;99.90;;;;;;4903257;29;21008;-68
2022/06/01 14:22:09;;;;;;;6.00;4.10;;;19.50;99.90;;;;;;4913973;29;20497;-68
2022/06/01 14:30:01;;;;;;;4.23;4.13;;;19.10;99.90;;;;;;4911749;29;20457;-69
2022/06/01 14:32:29;;;;;;;4.17;4.07;;;19.00;99.90;;;;;;4916039;29;20892;-69
2022/06/01 14:34:56;;;;;;;4.40;4.20;;;18.90;99.90;;;;;;4910371;29;20472;-69
2022/06/01 14:37:23;;;;;;;4.77;4.50;;;19.10;99.90;;;;;;4906832;29;20470;-68
2022/06/01 14:39:49;;;;;;;4.10;4.00;;;19.40;99.90;;;;;;4903920;29;20821;-69
2022/06/01 14:42:16;;;;;;;5.77;5.47;;;19.70;99.90;;;;;;4910787;29;20494;-69
2022/06/01 14:44:43;;;;;;;4.30;4.20;;;19.70;99.90;;;;;;4927328;29;20497;-69
2022/06/01 14:47:10;;;;;;;4.67;4.37;;;19.20;99.90;;;;;;4927127;29;20978;-70
2022/06/01 14:49:38;;;;;;;4.50;4.30;;;18.50;99.90;;;;;;4906288;29;20476;-69
2022/06/01 14:52:08;;;;;;;3.93;3.80;;;17.90;99.90;;;;;;4919453;29;20482;-69
2022/06/01 14:54:36;;;;;;;3.33;3.03;;;17.40;99.90;;;;;;4909787;29;20466;-69
2022/06/01 14:57:04;;;;;;;3.20;3.10;;;16.80;99.90;;;;;;4909472;29;20505;-69
2022/06/01 14:59:31;;;;;;;4.30;3.90;;;16.50;99.90;;;;;;4911076;29;20470;-68
2022/06/01 15:01:59;;;;;;;3.43;3.23;;;16.30;99.90;;;;;;4899933;29;20494;-68
2022/06/01 15:04:30;;;;;;;3.27;3.17;;;16.00;99.90;;;;;;4917988;29;20465;-70
2022/06/01 15:06:59;;;;;;;3.40;3.30;;;15.70;99.90;;;;;;4912869;29;20474;-69
2022/06/01 15:09:26;;;;;;;3.43;3.33;;;15.40;99.90;;;;;;4911903;29;20490;-69
2022/06/01 15:11:53;;;;;;;3.07;2.97;;;15.00;99.90;;;;;;4907785;29;20497;-69
2022/06/01 15:14:21;;;;;;;3.20;3.10;;;14.50;99.90;;;;;;4912338;29;20477;-69
2022/06/01 15:16:53;;;;;;;3.90;3.80;;;14.30;99.90;;;;;;4920146;29;20494;-69
2022/06/01 15:19:20;;;;;;;4.10;3.87;;;14.00;99.90;;;;;;4909630;29;20474;-69
2022/06/01 15:21:49;;;;;;;4.37;4.17;;;13.80;99.90;;;;;;4907757;29;20501;-69
2022/06/01 15:24:17;;;;;;;4.80;4.47;;;13.60;99.90;;;;;;4911160;29;20544;-69
2022/06/01 15:26:44;;;;;;;5.03;4.83;;;13.80;99.90;;;;;;4920669;29;20472;-69
2022/06/01 15:40:12;;;;;;;5.33;5.03;;;13.90;99.90;;;;;;4913178;29;20502;-69
2022/06/01 15:42:39;;;;;;;5.70;5.30;;;13.90;99.90;;;;;;4914035;29;21021;-69
2022/06/01 15:45:07;;;;;;;6.20;5.70;;;13.80;99.90;;;;;;4914735;29;20562;-69
2022/06/01 15:47:34;;;;;;;5.00;4.77;;;13.50;99.90;;;;;;4922534;29;21255;-69
2022/06/01 15:50:01;;;;;;;5.80;5.30;;;13.00;99.90;;;;;;4902872;29;20478;-69
2022/06/01 15:52:28;;;;;;;5.85;5.55;;;12.70;99.90;;;;;;4910114;29;20494;-69
2022/06/01 15:54:55;;;;;;;6.50;6.05;;;12.30;99.90;;;;;;4921272;29;20213;-68
2022/06/01 15:57:23;;;;;;;7.45;6.85;;;12.30;99.90;;;;;;4923447;29;20681;-69
2022/06/01 15:59:50;;;;;;;6.55;6.13;;;12.10;99.90;;;;;;4907167;29;20590;-69
2022/06/01 16:02:21;;;;;;;7.85;7.28;;;12.00;99.90;;;;;;4910653;29;20254;-69
2022/06/01 16:04:48;;;;;;;7.97;7.38;;;11.90;99.90;;;;;;4914113;29;20213;-69
2022/06/01 16:07:15;;;;;;;7.18;6.70;;;11.90;99.90;;;;;;4916759;29;20214;-69
2022/06/01 16:09:41;;;;;;;7.70;6.90;;;11.80;99.90;;;;;;4912038;29;20205;-69
2022/06/01 16:12:08;;;;;;;7.55;6.95;;;11.80;99.90;;;;;;4915307;29;20601;-68
2022/06/01 16:14:36;;;;;;;8.02;7.43;;;11.80;99.90;;;;;;4910186;29;20249;-70
2022/06/01 16:17:04;;;;;;;7.40;6.90;;;11.80;99.90;;;;;;4917812;29;20221;-68
2022/06/01 16:19:32;;;;;;;7.63;7.13;;;11.70;99.90;;;;;;4921925;29;20218;-67
2022/06/01 16:21:58;;;;;;;9.98;9.13;;;11.70;99.90;;;;;;4910241;29;20234;-69
2022/06/01 16:24:25;;;;;;;10.50;9.50;;;11.80;99.90;;;;;;4911806;29;20217;-68
2022/06/01 16:26:52;;;;;;;10.43;9.27;;;12.00;99.90;;;;;;4942621;23;20319;-76
2022/06/01 16:29:19;;;;;;;9.43;8.63;;;12.20;99.90;;;;;;4935908;29;20209;-73
2022/06/01 16:31:48;;;;;;;10.60;9.70;;;12.30;99.90;;;;;;4934853;29;20219;-73
2022/06/01 16:34:17;;;;;;;11.07;10.00;;;12.50;99.90;;;;;;4935640;29;20466;-73
2022/06/01 16:36:44;;;;;;;10.40;9.40;;;12.60;99.90;;;;;;4926389;29;20500;-73
2022/06/01 16:39:13;;;;;;;11.20;9.40;;;12.70;99.90;;;;;;4930752;29;20465;-73
2022/06/01 16:41:44;;;;;;;13.87;12.47;;;12.80;99.90;;;;;;4943350;29;20464;-74
2022/06/01 16:44:14;;;;;;;11.00;10.20;;;12.80;99.90;;;;;;4935017;29;20485;-75
2022/06/01 16:46:41;;;;;;;10.60;9.70;;;12.90;99.90;;;;;;4934984;29;20501;-73
2022/06/01 16:49:10;;;;;;;8.33;7.63;;;13.00;99.90;;;;;;4944922;29;20469;-74
2022/06/01 16:51:37;;;;;;;10.40;9.50;;;13.00;99.90;;;;;;4933451;29;20485;-71
2022/06/01 16:54:04;;;;;;;9.37;8.67;;;12.90;99.90;;;;;;4943621;29;20474;-71
2022/06/01 16:56:31;;;;;;;8.37;7.77;;;12.90;99.90;;;;;;4936917;29;20497;-71
2022/06/01 16:58:59;;;;;;;8.93;8.33;;;12.80;99.90;;;;;;4941279;29;20482;-70
2022/06/01 17:01:26;;;;;;;9.23;8.53;;;12.80;99.90;;;;;;4930689;29;20796;-70
2022/06/01 17:03:53;;;;;;;10.07;9.27;;;12.80;99.90;;;;;;4940225;29;20825;-70
2022/06/01 17:06:21;;;;;;;9.63;8.93;;;12.80;99.90;;;;;;4925571;29;20487;-70
2022/06/01 17:08:49;;;;;;;10.17;9.37;;;12.90;99.90;;;;;;4939834;29;20833;-70
2022/06/01 17:11:16;;;;;;;10.37;9.57;;;12.90;99.90;;;;;;4926635;29;20480;-71
2022/06/01 17:13:44;;;;;;;10.73;9.73;;;13.00;99.90;;;;;;4926395;29;20461;-71
2022/06/01 17:16:12;;;;;;;13.40;12.00;;;13.00;99.90;;;;;;4936742;29;20490;-70
2022/06/01 17:18:40;;;;;;;10.20;9.40;;;13.00;99.90;;;;;;4943691;29;20472;-70
2022/06/01 17:21:06;;;;;;;10.90;9.90;;;13.00;99.90;;;;;;4935448;29;20982;-70
2022/06/01 17:23:37;;;;;;;11.80;10.80;;;13.20;99.90;;;;;;4935829;28;20490;-70
2022/06/01 17:26:04;;;;;;;10.80;9.90;;;13.20;99.90;;;;;;4930659;28;20584;-71
2022/06/01 17:28:31;;;;;;;9.80;9.10;;;13.30;99.90;;;;;;4925966;29;20477;-70
2022/06/01 17:31:01;;;;;;;10.27;9.37;;;13.40;99.90;;;;;;4933770;29;20894;-70
2022/06/01 17:33:30;;;;;;;10.50;9.60;;;13.50;99.90;;;;;;4931597;29;20470;-70
2022/06/01 17:35:57;;;;;;;12.50;9.20;;;13.60;99.90;;;;;;4934271;29;20485;-70
2022/06/01 17:38:24;;;;;;;9.30;8.67;;;13.60;99.90;;;;;;4930434;29;20473;-70
2022/06/01 17:40:52;;;;;;;9.60;8.90;;;13.70;99.90;;;;;;4925994;29;20959;-70